createdAt,value
2022-12-25T00:01:26.256Z,2.24
2022-12-25T00:06:34.304Z,2.27
2022-12-25T00:11:41.058Z,2.28
2022-12-25T00:16:53.407Z,2.28
2022-12-25T00:22:01.800Z,2.28
2022-12-25T00:27:08.883Z,2.29
2022-12-25T00:32:25.755Z,2.30
2022-12-25T00:37:34.057Z,2.33
2022-12-25T00:42:41.050Z,2.33
2022-12-25T00:47:49.198Z,2.33
2022-12-25T00:52:57.606Z,2.36
2022-12-25T00:58:04.525Z,2.34
2022-12-25T01:03:11.196Z,2.32
2022-12-25T01:08:21.907Z,2.37
2022-12-25T01:13:30.269Z,2.32
2022-12-25T01:18:37.191Z,2.34
2022-12-25T01:23:45.871Z,2.36
2022-12-25T01:28:53.559Z,2.35
2022-12-25T01:34:00.658Z,2.35
2022-12-25T01:39:08.872Z,2.37
2022-12-25T01:45:05.873Z,2.40
2022-12-25T01:50:17.434Z,2.41
2022-12-25T01:55:26.140Z,2.42
2022-12-25T02:00:33.093Z,2.42
2022-12-25T02:05:40.254Z,2.44
2022-12-25T02:10:48.658Z,2.40
2022-12-25T02:16:10.385Z,2.45
2022-12-25T02:21:54.396Z,2.48
2022-12-25T02:27:26.315Z,2.44
2022-12-25T02:32:43.455Z,2.47
2022-12-25T02:37:56.578Z,2.43
2022-12-25T02:43:27.842Z,2.47
2022-12-25T02:48:57.575Z,2.51
2022-12-25T02:54:27.566Z,2.46
2022-12-25T02:59:55.156Z,2.48
2022-12-25T03:05:26.268Z,2.48
2022-12-25T03:10:52.144Z,2.52
2022-12-25T03:16:19.097Z,2.51
2022-12-25T03:21:47.538Z,2.53
2022-12-25T03:26:56.946Z,2.53
2022-12-25T03:32:20.391Z,2.54
2022-12-25T03:37:59.342Z,2.55
2022-12-25T03:43:32.135Z,2.55
2022-12-25T03:49:04.329Z,2.60
2022-12-25T03:54:32.342Z,2.57
2022-12-25T03:59:56.514Z,2.60
2022-12-25T04:05:20.399Z,2.61
2022-12-25T04:10:45.740Z,2.62
2022-12-25T04:16:11.324Z,2.63
2022-12-25T04:21:35.190Z,2.65
2022-12-25T04:27:00.393Z,2.64
2022-12-25T04:32:24.150Z,2.63
2022-12-25T04:37:30.627Z,2.64
2022-12-25T04:42:38.623Z,2.62
2022-12-25T04:47:45.316Z,2.65
2022-12-25T04:52:51.974Z,2.66
2022-12-25T04:58:00.011Z,2.67
2022-12-25T05:03:06.603Z,2.68
2022-12-25T05:08:13.380Z,2.70
2022-12-25T05:13:21.399Z,2.69
2022-12-25T05:18:28.533Z,2.70
2022-12-25T05:23:35.859Z,2.69
2022-12-25T05:28:44.527Z,2.70
2022-12-25T05:33:52.857Z,2.71
2022-12-25T05:38:59.671Z,2.71
2022-12-25T05:44:07.945Z,2.73
2022-12-25T05:49:14.617Z,2.74
2022-12-25T05:54:21.191Z,2.75
2022-12-25T05:59:31.765Z,2.74
2022-12-25T06:04:38.771Z,2.74
2022-12-25T06:09:45.433Z,2.75
2022-12-25T06:14:53.657Z,2.76
2022-12-25T06:20:00.275Z,2.75
2022-12-25T06:25:08.876Z,2.79
2022-12-25T06:30:17.435Z,2.82
2022-12-25T06:35:24.130Z,2.80
2022-12-25T06:40:30.752Z,2.81
2022-12-25T06:45:39.485Z,2.83
2022-12-25T06:50:45.943Z,2.83
2022-12-25T06:55:52.849Z,2.85
2022-12-25T07:01:01.485Z,2.85
2022-12-25T07:06:08.527Z,2.86
2022-12-25T07:11:15.072Z,2.87
2022-12-25T07:16:23.025Z,2.90
2022-12-25T07:21:29.717Z,2.90
2022-12-25T07:26:36.327Z,2.93
2022-12-25T07:31:44.274Z,2.96
2022-12-25T07:36:50.790Z,2.98
2022-12-25T07:41:57.129Z,3.03
2022-12-25T07:47:08.574Z,3.04
2022-12-25T07:52:15.045Z,3.07
2022-12-25T07:57:21.331Z,3.09
2022-12-25T08:02:29.927Z,3.11
2022-12-25T08:07:37.317Z,3.12
2022-12-25T08:12:43.665Z,3.16
2022-12-25T08:17:51.665Z,3.20
2022-12-25T08:22:58.246Z,3.22
2022-12-25T08:28:04.872Z,3.24
2022-12-25T08:33:12.902Z,3.25
2022-12-25T08:38:19.534Z,3.29
2022-12-25T08:43:26.120Z,3.31
2022-12-25T08:48:37.754Z,3.37
2022-12-25T08:53:45.536Z,3.41
2022-12-25T08:58:52.229Z,3.42
2022-12-25T09:04:00.545Z,3.46
2022-12-25T09:09:07.240Z,3.51
2022-12-25T09:14:14.784Z,3.54
2022-12-25T09:19:22.870Z,3.55
2022-12-25T09:24:29.479Z,3.54
2022-12-25T09:29:36.248Z,3.57
2022-12-25T09:34:44.589Z,3.57
2022-12-25T09:39:52.559Z,3.60
2022-12-25T09:45:04.413Z,3.63
2022-12-25T09:50:18.937Z,3.65
2022-12-25T09:55:27.634Z,3.66
2022-12-25T10:00:43.224Z,3.67
2022-12-25T10:06:12.748Z,3.68
2022-12-25T10:11:33.737Z,3.74
2022-12-25T10:16:56.191Z,3.75
2022-12-25T10:22:14.225Z,3.78
2022-12-25T10:27:29.189Z,3.78
2022-12-25T10:32:36.605Z,3.81
2022-12-25T10:37:47.735Z,3.82
2022-12-25T10:43:03.237Z,3.84
2022-12-25T10:48:17.274Z,3.84
2022-12-25T10:53:29.341Z,3.83
2022-12-25T10:58:37.840Z,3.86
2022-12-25T11:03:53.032Z,3.89
2022-12-25T11:09:03.678Z,3.90
2022-12-25T11:14:21.019Z,3.90
2022-12-25T11:19:30.801Z,3.92
2022-12-25T11:24:39.904Z,3.92
2022-12-25T11:29:51.245Z,3.95
2022-12-25T11:34:59.219Z,3.98
2022-12-25T11:40:16.655Z,3.99
2022-12-25T11:45:32.049Z,4.03
2022-12-25T12:02:41.736Z,4.04
2022-12-25T12:08:00.949Z,4.07
2022-12-25T12:13:33.546Z,4.08
2022-12-25T12:18:48.172Z,4.12
2022-12-25T12:24:04.321Z,4.13
2022-12-25T12:29:28.618Z,4.15
2022-12-25T12:34:44.325Z,4.11
2022-12-25T12:39:56.169Z,4.12
2022-12-25T12:45:13.104Z,4.16
2022-12-25T12:50:40.415Z,4.17
2022-12-25T12:55:47.781Z,4.20
2022-12-25T13:01:04.969Z,4.22
2022-12-25T13:06:22.324Z,4.21
2022-12-25T13:11:31.978Z,4.22
2022-12-25T13:16:42.684Z,4.23
2022-12-25T13:21:57.612Z,4.25
2022-12-25T13:27:23.217Z,4.23
2022-12-25T13:32:34.018Z,4.22
2022-12-25T13:37:42.248Z,4.22
2022-12-25T13:42:50.968Z,4.23
2022-12-25T13:47:58.588Z,4.23
2022-12-25T13:53:18.644Z,4.26
2022-12-25T13:58:31.779Z,4.25
2022-12-25T14:03:45.785Z,4.25
2022-12-25T14:08:56.469Z,4.25
2022-12-25T14:14:17.883Z,4.25
2022-12-25T14:19:29.353Z,4.24
2022-12-25T14:24:38.264Z,4.21
2022-12-25T14:29:47.873Z,4.18
2022-12-25T14:34:58.583Z,4.17
2022-12-25T14:40:26.924Z,4.17
2022-12-25T14:45:35.888Z,4.17
2022-12-25T14:50:53.378Z,4.15
2022-12-25T14:56:02.684Z,4.11
2022-12-25T15:01:22.474Z,4.11
2022-12-25T15:06:29.890Z,4.08
2022-12-25T15:11:38.800Z,4.06
2022-12-25T15:16:48.886Z,3.99
2022-12-25T15:21:55.695Z,3.95
2022-12-25T15:27:05.892Z,3.93
2022-12-25T15:32:20.429Z,3.87
2022-12-25T15:37:27.326Z,3.84
2022-12-25T15:42:39.139Z,3.84
2022-12-25T15:47:46.212Z,3.84
2022-12-25T15:52:53.250Z,3.82
2022-12-25T15:58:01.732Z,3.81
2022-12-25T16:03:09.246Z,3.81
2022-12-25T16:08:16.556Z,3.81
2022-12-25T16:13:25.168Z,3.79
2022-12-25T16:18:35.504Z,3.78
2022-12-25T16:23:42.702Z,3.78
2022-12-25T16:28:55.620Z,3.78
2022-12-25T16:34:06.171Z,3.76
2022-12-25T16:39:18.230Z,3.74
2022-12-25T16:44:26.821Z,3.69
2022-12-25T16:49:33.949Z,3.68
2022-12-25T16:54:44.695Z,3.68
2022-12-25T16:59:54.069Z,3.64
2022-12-25T17:05:06.639Z,3.62
2022-12-25T17:10:14.475Z,3.59
2022-12-25T17:15:29.958Z,3.51
2022-12-25T17:20:38.527Z,3.56
2022-12-25T17:25:45.199Z,3.59
2022-12-25T17:30:56.669Z,3.65
2022-12-25T17:36:04.971Z,3.66
2022-12-25T17:41:20.317Z,3.65
2022-12-25T17:46:34.364Z,3.59
2022-12-25T17:51:41.818Z,3.59
2022-12-25T17:56:49.860Z,3.62
2022-12-25T18:01:58.877Z,3.63
2022-12-25T18:07:06.619Z,3.62
2022-12-25T18:12:14.303Z,3.63
2022-12-25T18:17:23.007Z,3.62
2022-12-25T18:22:30.722Z,3.63
2022-12-25T18:27:38.128Z,3.65
2022-12-25T18:32:51.695Z,3.65
2022-12-25T18:38:03.708Z,3.63
2022-12-25T18:43:16.370Z,3.67
2022-12-25T18:48:40.469Z,3.70
2022-12-25T18:53:58.417Z,3.73
2022-12-25T18:59:24.468Z,3.73
2022-12-25T19:04:45.655Z,3.74
2022-12-25T19:09:57.383Z,3.73
2022-12-25T19:15:10.137Z,3.75
2022-12-25T19:20:19.483Z,3.74
2022-12-25T19:25:26.571Z,3.75
2022-12-25T19:30:35.751Z,3.77
2022-12-25T19:35:47.208Z,3.76
2022-12-25T19:41:05.182Z,3.75
2022-12-25T19:46:22.911Z,3.76
2022-12-25T19:51:34.264Z,3.78
2022-12-25T19:56:43.555Z,3.79
2022-12-25T20:01:54.920Z,3.78
2022-12-25T20:07:04.270Z,3.78
2022-12-25T20:12:17.153Z,3.81
2022-12-25T20:17:30.717Z,3.81
2022-12-25T20:22:41.363Z,3.79
2022-12-25T20:27:50.166Z,3.79
2022-12-25T20:33:04.203Z,3.79
2022-12-25T20:38:15.338Z,3.77
2022-12-25T20:43:24.176Z,3.76
2022-12-25T20:48:33.112Z,3.76
2022-12-25T20:53:43.103Z,3.75
2022-12-25T20:58:49.900Z,3.72
2022-12-25T21:04:00.463Z,3.75
2022-12-25T21:09:10.467Z,3.74
2022-12-25T21:14:17.231Z,3.69
2022-12-25T21:19:24.617Z,3.69
2022-12-25T21:24:33.552Z,3.69
2022-12-25T21:29:41.312Z,3.69
2022-12-25T21:34:49.319Z,3.70
2022-12-25T21:39:59.507Z,3.70
2022-12-25T21:45:06.848Z,3.67
2022-12-25T21:50:39.046Z,3.62
2022-12-25T21:56:04.176Z,3.64
2022-12-25T22:01:14.832Z,3.62
2022-12-25T22:06:42.611Z,3.60
2022-12-25T22:12:13.232Z,3.62
2022-12-25T22:17:40.137Z,3.63
2022-12-25T22:22:48.025Z,3.64
2022-12-25T22:27:58.922Z,3.66
2022-12-25T22:33:08.084Z,3.67
2022-12-25T22:38:15.200Z,3.68
2022-12-25T22:43:32.535Z,3.71
2022-12-25T22:48:50.912Z,3.71
2022-12-25T22:54:03.619Z,3.69
2022-12-25T22:59:12.648Z,3.69
2022-12-25T23:04:19.968Z,3.69
2022-12-25T23:09:28.846Z,3.70
2022-12-25T23:14:40.944Z,3.69
2022-12-25T23:20:05.422Z,3.70
2022-12-25T23:25:35.157Z,3.71
2022-12-25T23:30:44.275Z,3.74
2022-12-25T23:35:51.752Z,3.73
2022-12-25T23:40:59.079Z,3.74
2022-12-25T23:46:07.777Z,3.68
2022-12-25T23:51:14.927Z,3.67
2022-12-25T23:56:21.878Z,3.67
